createdAt,value
2019-03-10T00:01:41.607Z,12.60
2019-03-10T00:04:12.087Z,13.40
2019-03-10T00:06:42.567Z,12.50
2019-03-10T00:09:13.560Z,12.60
2019-03-10T00:11:43.863Z,12.60
2019-03-10T00:14:15.358Z,12.50
2019-03-10T00:16:48.614Z,12.60
2019-03-10T00:19:19.025Z,12.60
2019-03-10T00:21:49.472Z,12.60
2019-03-10T00:24:20.103Z,12.60
2019-03-10T00:26:50.465Z,12.60
2019-03-10T00:29:21.085Z,12.70
2019-03-10T00:31:52.172Z,12.70
2019-03-10T00:34:25.599Z,12.70
2019-03-10T00:36:56.097Z,12.70
2019-03-10T00:40:08.878Z,12.70
2019-03-10T00:43:15.541Z,12.70
2019-03-10T00:46:20.433Z,12.70
2019-03-10T00:49:47.623Z,12.70
2019-03-10T00:52:31.072Z,12.50
2019-03-10T00:55:02.622Z,10.10
2019-03-10T00:57:32.902Z,12.50
2019-03-10T01:00:03.891Z,12.40
2019-03-10T01:02:34.290Z,12.40
2019-03-10T01:05:06.721Z,12.40
2019-03-10T01:07:36.859Z,12.30
2019-03-10T01:10:08.267Z,12.30
2019-03-10T01:12:38.387Z,12.30
2019-03-10T01:15:09.717Z,12.20
2019-03-10T01:17:40.531Z,12.30
2019-03-10T01:20:11.183Z,12.30
2019-03-10T01:22:41.352Z,12.30
2019-03-10T01:25:13.844Z,12.30
2019-03-10T01:27:44.131Z,12.30
2019-03-10T01:30:16.758Z,12.40
2019-03-10T01:33:26.062Z,12.40
2019-03-10T01:35:56.491Z,12.50
2019-03-10T01:38:26.642Z,12.40
2019-03-10T01:40:57.314Z,12.50
2019-03-10T01:43:27.489Z,12.40
2019-03-10T01:45:58.024Z,12.30
2019-03-10T01:48:28.184Z,12.30
2019-03-10T01:50:58.270Z,12.30
2019-03-10T01:53:30.016Z,12.30
2019-03-10T01:56:00.384Z,12.20
2019-03-10T01:58:30.558Z,12.20
2019-03-10T02:01:00.752Z,12.10
2019-03-10T02:03:30.918Z,12.00
2019-03-10T02:06:01.094Z,11.90
2019-03-10T02:08:31.541Z,11.90
2019-03-10T02:11:01.764Z,11.80
2019-03-10T02:13:32.423Z,11.80
2019-03-10T02:16:02.653Z,11.80
2019-03-10T02:18:34.641Z,11.80
2019-03-10T02:21:04.862Z,11.80
2019-03-10T02:23:35.038Z,11.80
2019-03-10T02:26:06.210Z,11.70
2019-03-10T02:28:38.083Z,11.60
2019-03-10T02:31:08.378Z,11.60
2019-03-10T02:33:38.895Z,11.50
2019-03-10T02:36:10.455Z,11.40
2019-03-10T02:38:40.886Z,10.30
2019-03-10T02:41:12.419Z,10.80
2019-03-10T02:43:42.540Z,11.00
2019-03-10T02:46:12.815Z,10.90
2019-03-10T02:48:44.338Z,10.90
2019-03-10T02:51:14.578Z,10.90
2019-03-10T02:53:44.924Z,10.80
2019-03-10T02:56:15.128Z,10.80
2019-03-10T02:58:45.309Z,10.70
2019-03-10T03:01:15.511Z,10.70
2019-03-10T03:03:47.022Z,10.60
2019-03-10T03:06:18.909Z,10.60
2019-03-10T03:08:48.961Z,10.50
2019-03-10T03:11:19.796Z,10.50
2019-03-10T03:13:50.133Z,10.40
2019-03-10T03:16:20.701Z,10.40
2019-03-10T03:18:53.131Z,10.30
2019-03-10T03:21:23.577Z,10.20
2019-03-10T03:23:53.688Z,10.20
2019-03-10T03:26:24.164Z,10.10
2019-03-10T03:28:54.321Z,10.00
2019-03-10T03:31:25.628Z,9.80
2019-03-10T03:33:55.869Z,9.90
2019-03-10T03:36:31.467Z,9.90
2019-03-10T03:39:18.421Z,9.80
2019-03-10T03:41:52.404Z,9.90
2019-03-10T03:44:22.453Z,9.90
2019-03-10T03:46:52.899Z,10.00
2019-03-10T03:49:23.074Z,10.00
2019-03-10T03:51:55.883Z,10.00
2019-03-10T03:54:26.136Z,10.00
2019-03-10T03:56:56.710Z,10.00
2019-03-10T03:59:28.553Z,10.10
2019-03-10T04:02:10.695Z,10.00
2019-03-10T04:04:41.230Z,10.10
2019-03-10T04:07:11.662Z,10.10
2019-03-10T04:09:41.982Z,10.10
2019-03-10T04:12:12.247Z,10.10
2019-03-10T04:14:42.418Z,10.10
2019-03-10T04:17:15.804Z,10.10
2019-03-10T04:19:46.021Z,10.10
2019-03-10T04:22:18.552Z,10.10
2019-03-10T04:24:49.182Z,10.20
2019-03-10T04:27:19.746Z,10.20
2019-03-10T04:29:50.030Z,10.20
2019-03-10T04:32:20.579Z,10.20
2019-03-10T04:34:50.815Z,10.20
2019-03-10T04:37:21.220Z,10.10
2019-03-10T04:39:51.403Z,10.20
2019-03-10T04:42:21.794Z,10.20
2019-03-10T04:44:51.878Z,10.20
2019-03-10T04:47:23.419Z,10.30
2019-03-10T04:49:54.626Z,10.50
2019-03-10T04:52:25.008Z,10.60
2019-03-10T04:55:14.197Z,10.80
2019-03-10T04:57:58.558Z,10.90
2019-03-10T05:00:29.407Z,11.00
2019-03-10T05:03:00.642Z,11.40
2019-03-10T05:05:30.838Z,11.30
2019-03-10T05:08:01.341Z,10.40
2019-03-10T05:10:31.474Z,11.50
2019-03-10T05:13:01.833Z,11.60
2019-03-10T05:15:31.969Z,11.60
2019-03-10T05:18:02.127Z,11.70
2019-03-10T05:20:33.312Z,11.80
2019-03-10T05:23:30.499Z,12.60
2019-03-10T05:26:01.199Z,11.90
2019-03-10T05:28:32.168Z,12.00
2019-03-10T05:31:02.756Z,12.00
2019-03-10T05:33:33.175Z,12.10
2019-03-10T05:36:03.265Z,12.10
2019-03-10T05:38:35.835Z,12.10
2019-03-10T05:41:08.774Z,12.10
2019-03-10T05:43:40.002Z,12.10
2019-03-10T05:46:12.170Z,12.10
2019-03-10T05:48:43.304Z,12.20
2019-03-10T05:51:13.840Z,12.30
2019-03-10T05:53:44.283Z,12.40
2019-03-10T05:56:15.314Z,12.40
2019-03-10T05:58:45.515Z,12.40
2019-03-10T06:01:15.653Z,12.40
2019-03-10T06:03:45.793Z,12.50
2019-03-10T06:06:15.978Z,12.60
2019-03-10T06:08:46.450Z,12.70
2019-03-10T06:13:49.846Z,12.60
2019-03-10T06:16:19.918Z,13.90
2019-03-10T06:18:50.334Z,12.90
2019-03-10T06:21:24.889Z,12.90
2019-03-10T06:23:55.415Z,11.90
2019-03-10T06:26:27.294Z,13.10
2019-03-10T06:28:58.228Z,13.10
2019-03-10T06:31:28.385Z,13.30
2019-03-10T06:33:58.855Z,13.30
2019-03-10T06:36:29.002Z,13.30
2019-03-10T06:38:59.498Z,13.40
2019-03-10T06:41:29.948Z,13.40
2019-03-10T06:44:00.036Z,13.50
2019-03-10T06:46:30.596Z,13.60
2019-03-10T06:49:01.074Z,13.60
2019-03-10T06:51:31.396Z,13.70
2019-03-10T06:54:01.525Z,13.80
2019-03-10T06:56:31.703Z,13.90
2019-03-10T06:59:02.360Z,13.90
2019-03-10T07:01:32.855Z,14.00
2019-03-10T07:04:03.281Z,14.00
2019-03-10T07:06:34.824Z,14.00
2019-03-10T07:09:05.980Z,14.10
2019-03-10T07:11:36.518Z,14.10
2019-03-10T07:14:06.884Z,14.20
2019-03-10T07:16:38.530Z,14.30
2019-03-10T07:19:08.713Z,14.30
2019-03-10T07:21:39.275Z,14.50
2019-03-10T07:24:09.493Z,14.50
2019-03-10T07:26:43.154Z,14.60
2019-03-10T07:29:35.491Z,14.70
2019-03-10T07:32:31.593Z,14.70
2019-03-10T07:35:20.706Z,14.80
2019-03-10T07:38:19.028Z,14.80
2019-03-10T07:40:57.377Z,15.10
2019-03-10T07:43:55.854Z,14.90
2019-03-10T07:46:59.843Z,14.90
2019-03-10T07:49:36.209Z,14.90
2019-03-10T07:52:31.354Z,14.90
2019-03-10T07:55:18.833Z,14.90
2019-03-10T07:57:58.701Z,14.90
2019-03-10T08:00:47.484Z,14.90
2019-03-10T08:03:48.755Z,14.90
2019-03-10T08:06:51.094Z,14.90
2019-03-10T08:09:28.592Z,14.90
2019-03-10T08:12:27.162Z,14.90
2019-03-10T08:15:16.348Z,14.90
2019-03-10T08:17:52.680Z,14.80
2019-03-10T08:20:31.805Z,14.80
2019-03-10T08:23:33.167Z,14.70
2019-03-10T08:26:11.447Z,14.70
2019-03-10T08:29:03.979Z,14.60
2019-03-10T08:31:47.705Z,14.50
2019-03-10T08:34:33.554Z,14.40
2019-03-10T08:37:10.185Z,14.80
2019-03-10T08:40:08.559Z,14.40
2019-03-10T08:43:01.513Z,14.30
2019-03-10T08:45:56.383Z,14.30
2019-03-10T08:48:54.338Z,14.30
2019-03-10T08:51:32.188Z,14.30
2019-03-10T08:54:27.311Z,14.30
2019-03-10T08:57:16.744Z,14.30
2019-03-10T09:00:11.947Z,14.90
2019-03-10T09:03:13.207Z,14.50
2019-03-10T09:06:06.412Z,14.50
2019-03-10T09:08:46.105Z,14.60
2019-03-10T09:11:34.998Z,14.80
2019-03-10T09:14:11.163Z,14.90
2019-03-10T09:16:48.067Z,14.90
2019-03-10T09:19:39.765Z,15.10
2019-03-10T09:22:28.967Z,15.20
2019-03-10T09:25:10.109Z,15.20
2019-03-10T09:27:59.366Z,15.30
2019-03-10T09:30:51.597Z,15.40
2019-03-10T09:33:33.916Z,14.70
2019-03-10T09:36:26.597Z,15.50
2019-03-10T09:39:15.739Z,15.50
2019-03-10T09:41:52.529Z,15.50
2019-03-10T09:44:41.244Z,15.50
2019-03-10T09:47:32.976Z,15.50
2019-03-10T09:50:18.695Z,15.50
2019-03-10T09:53:20.356Z,15.50
2019-03-10T09:56:18.442Z,15.50
2019-03-10T09:59:08.991Z,15.50
2019-03-10T10:02:14.893Z,15.60
2019-03-10T10:05:07.206Z,15.70
2019-03-10T10:08:02.404Z,15.70
2019-03-10T10:10:49.821Z,15.80
2019-03-10T10:13:29.051Z,16.10
2019-03-10T10:16:36.664Z,16.00
2019-03-10T10:19:28.310Z,16.00
2019-03-10T10:22:17.919Z,16.10
2019-03-10T10:25:21.213Z,16.20
2019-03-10T10:28:13.115Z,16.20
2019-03-10T10:30:52.755Z,16.20
2019-03-10T10:33:34.389Z,16.20
2019-03-10T10:36:21.549Z,16.30
2019-03-10T10:39:11.556Z,16.40
2019-03-10T10:42:00.791Z,16.50
2019-03-10T10:44:48.752Z,16.50
2019-03-10T10:47:37.654Z,16.40
2019-03-10T10:50:42.240Z,16.50
2019-03-10T10:53:34.466Z,16.70
2019-03-10T10:56:30.232Z,16.80
2019-03-10T10:59:15.585Z,16.90
2019-03-10T11:02:08.655Z,17.00
2019-03-10T11:04:58.312Z,17.00
2019-03-10T11:07:50.470Z,17.20
2019-03-10T11:10:45.756Z,17.40
2019-03-10T11:13:39.888Z,17.50
2019-03-10T11:16:21.334Z,17.50
2019-03-10T11:19:14.625Z,17.40
2019-03-10T11:22:02.774Z,17.30
2019-03-10T11:24:46.589Z,17.30
2019-03-10T11:27:31.479Z,17.20
2019-03-10T11:30:17.451Z,17.10
2019-03-10T11:33:13.602Z,16.80
2019-03-10T11:35:56.530Z,16.80
2019-03-10T11:38:55.301Z,16.50
2019-03-10T11:41:57.891Z,16.80
2019-03-10T11:44:42.766Z,16.70
2019-03-10T11:47:26.400Z,16.50
2019-03-10T11:50:25.456Z,16.40
2019-03-10T11:53:19.417Z,16.40
2019-03-10T11:56:09.961Z,16.20
2019-03-10T12:01:59.238Z,16.00
2019-03-10T12:07:30.435Z,15.50
2019-03-10T12:10:00.923Z,15.40
2019-03-10T12:12:32.839Z,15.40
2019-03-10T12:15:05.363Z,15.40
2019-03-10T12:17:37.028Z,15.30
2019-03-10T12:20:08.375Z,15.30
2019-03-10T12:22:40.456Z,15.30
2019-03-10T12:25:14.452Z,15.30
2019-03-10T12:27:53.473Z,15.30
2019-03-10T12:30:24.907Z,15.40
2019-03-10T12:32:55.331Z,15.40
2019-03-10T12:35:34.295Z,15.40
2019-03-10T12:38:02.071Z,15.30
2019-03-10T12:40:32.738Z,15.40
2019-03-10T12:43:03.008Z,15.40
2019-03-10T12:45:33.523Z,15.40
2019-03-10T12:48:09.004Z,15.40
2019-03-10T12:53:21.905Z,15.70
2019-03-10T12:55:53.138Z,15.70
2019-03-10T12:58:23.329Z,15.80
2019-03-10T13:00:53.542Z,15.70
2019-03-10T13:03:23.919Z,15.80
2019-03-10T13:05:54.162Z,15.80
2019-03-10T13:08:24.486Z,15.70
2019-03-10T13:10:55.132Z,15.80
2019-03-10T13:13:25.340Z,15.80
2019-03-10T13:15:55.636Z,15.70
2019-03-10T13:18:25.948Z,15.80
2019-03-10T13:20:56.989Z,15.80
2019-03-10T13:23:27.209Z,15.90
2019-03-10T13:25:59.268Z,15.10
2019-03-10T13:28:29.722Z,16.10
2019-03-10T13:31:00.057Z,15.60
2019-03-10T13:33:30.657Z,16.20
2019-03-10T13:36:01.275Z,16.30
2019-03-10T13:38:31.815Z,16.50
2019-03-10T13:41:02.751Z,16.60
2019-03-10T13:43:33.133Z,16.60
2019-03-10T13:46:03.841Z,16.60
2019-03-10T13:48:34.233Z,16.70
2019-03-10T13:51:04.774Z,16.60
2019-03-10T13:53:35.101Z,16.50
2019-03-10T13:56:05.570Z,16.50
2019-03-10T13:58:37.010Z,16.00
2019-03-10T14:01:07.318Z,16.30
2019-03-10T14:03:37.644Z,16.10
2019-03-10T14:06:08.720Z,16.10
2019-03-10T14:08:38.893Z,16.10
2019-03-10T14:11:13.113Z,16.10
2019-03-10T14:13:43.646Z,16.10
2019-03-10T14:16:13.974Z,16.00
2019-03-10T14:18:44.648Z,15.90
2019-03-10T14:21:14.932Z,15.80
2019-03-10T14:23:45.297Z,15.50
2019-03-10T14:26:15.804Z,15.20
2019-03-10T14:28:46.169Z,14.70
2019-03-10T14:31:16.437Z,14.70
2019-03-10T14:33:46.753Z,14.40
2019-03-10T14:36:16.923Z,14.20
2019-03-10T14:38:47.229Z,14.20
2019-03-10T14:41:17.478Z,14.20
2019-03-10T14:43:48.424Z,14.20
2019-03-10T14:46:18.957Z,14.20
2019-03-10T14:48:49.280Z,14.20
2019-03-10T14:51:19.944Z,14.20
2019-03-10T14:53:50.179Z,14.20
2019-03-10T14:56:20.503Z,16.30
2019-03-10T14:58:51.287Z,14.20
2019-03-10T15:01:22.720Z,14.20
2019-03-10T15:03:53.110Z,14.20
2019-03-10T15:06:23.499Z,14.20
2019-03-10T15:08:54.124Z,14.20
2019-03-10T15:11:24.439Z,14.20
2019-03-10T15:13:54.966Z,13.30
2019-03-10T15:16:25.352Z,14.10
2019-03-10T15:18:55.619Z,14.10
2019-03-10T15:21:26.102Z,14.50
2019-03-10T15:23:56.373Z,14.50
2019-03-10T15:26:27.056Z,15.00
2019-03-10T15:29:02.471Z,15.30
2019-03-10T15:31:33.704Z,15.30
2019-03-10T15:34:04.948Z,17.50
2019-03-10T15:36:35.533Z,15.70
2019-03-10T15:39:07.206Z,15.70
2019-03-10T15:41:39.372Z,15.60
2019-03-10T15:46:39.506Z,18.00
2019-03-10T15:49:09.747Z,15.80
2019-03-10T15:51:40.606Z,15.70
2019-03-10T15:54:10.906Z,15.70
2019-03-10T15:56:41.343Z,15.70
2019-03-10T15:59:13.452Z,15.60
2019-03-10T16:01:44.697Z,15.60
2019-03-10T16:04:19.552Z,15.90
2019-03-10T16:06:50.168Z,16.10
2019-03-10T16:09:20.416Z,16.20
2019-03-10T16:14:20.577Z,16.20
2019-03-10T16:16:50.848Z,16.10
2019-03-10T16:19:21.684Z,15.90
2019-03-10T16:21:51.801Z,15.90
2019-03-10T16:24:22.775Z,15.60
2019-03-10T16:26:52.967Z,15.50
2019-03-10T16:29:23.600Z,15.30
2019-03-10T16:31:54.020Z,15.30
2019-03-10T16:36:54.516Z,14.80
2019-03-10T16:39:25.306Z,14.60
2019-03-10T16:41:55.589Z,14.30
2019-03-10T16:44:25.874Z,14.00
2019-03-10T16:46:56.125Z,13.60
2019-03-10T16:49:26.439Z,13.60
2019-03-10T16:51:58.074Z,13.30
2019-03-10T16:54:28.338Z,13.30
2019-03-10T16:56:58.633Z,13.30
2019-03-10T16:59:28.940Z,13.10
2019-03-10T17:01:59.232Z,13.10
2019-03-10T17:04:29.778Z,13.00
2019-03-10T17:07:00.368Z,13.00
2019-03-10T17:09:30.856Z,13.00
2019-03-10T17:12:01.294Z,13.00
2019-03-10T17:14:31.965Z,12.90
2019-03-10T17:17:02.257Z,12.90
2019-03-10T17:19:34.252Z,12.60
2019-03-10T17:22:04.580Z,12.70
2019-03-10T17:24:34.820Z,12.70
2019-03-10T17:27:05.193Z,12.70
2019-03-10T17:32:08.205Z,11.10
2019-03-10T17:34:38.496Z,12.90
2019-03-10T17:37:08.637Z,13.00
2019-03-10T17:39:38.865Z,13.00
2019-03-10T17:42:09.599Z,12.90
2019-03-10T17:44:41.754Z,13.00
2019-03-10T17:47:13.733Z,13.00
2019-03-10T17:49:43.943Z,13.10
2019-03-10T17:52:16.113Z,13.10
2019-03-10T17:54:46.435Z,13.10
2019-03-10T17:57:16.686Z,13.10
2019-03-10T17:59:47.287Z,13.10
2019-03-10T18:02:17.434Z,13.00
2019-03-10T18:04:47.911Z,13.10
2019-03-10T18:07:18.359Z,13.10
2019-03-10T18:09:48.794Z,13.10
2019-03-10T18:12:18.970Z,13.00
2019-03-10T18:14:49.732Z,12.90
2019-03-10T18:19:50.513Z,12.70
2019-03-10T18:22:20.815Z,12.60
2019-03-10T18:24:51.142Z,12.60
2019-03-10T18:27:21.689Z,12.50
2019-03-10T18:29:52.475Z,12.40
2019-03-10T18:32:23.221Z,12.20
2019-03-10T18:34:53.481Z,12.00
2019-03-10T18:37:24.007Z,11.80
2019-03-10T18:39:54.246Z,11.70
2019-03-10T18:42:24.939Z,11.50
2019-03-10T18:44:55.168Z,12.70
2019-03-10T18:47:26.674Z,11.30
2019-03-10T18:49:56.943Z,13.40
2019-03-10T18:52:27.564Z,11.10
2019-03-10T18:54:58.102Z,10.90
2019-03-10T18:57:28.368Z,10.80
2019-03-10T18:59:58.799Z,10.70
2019-03-10T19:02:29.344Z,10.80
2019-03-10T19:04:59.456Z,12.50
2019-03-10T19:07:30.039Z,11.00
2019-03-10T19:10:00.641Z,11.00
2019-03-10T19:12:32.155Z,10.80
2019-03-10T19:15:02.760Z,10.80
2019-03-10T19:17:34.791Z,10.90
2019-03-10T19:20:05.423Z,10.90
2019-03-10T19:22:35.725Z,11.00
2019-03-10T19:25:07.129Z,11.00
2019-03-10T19:27:37.447Z,11.00
2019-03-10T19:30:09.337Z,11.10
2019-03-10T19:32:39.860Z,11.00
2019-03-10T19:35:11.570Z,11.00
2019-03-10T19:37:42.275Z,11.00
2019-03-10T19:40:13.925Z,11.00
2019-03-10T19:42:44.335Z,11.00
2019-03-10T19:45:15.867Z,11.00
2019-03-10T19:47:46.275Z,11.00
2019-03-10T19:50:16.580Z,11.00
2019-03-10T19:52:47.281Z,11.00
2019-03-10T19:55:22.067Z,10.90
2019-03-10T19:57:52.546Z,10.90
2019-03-10T20:02:52.881Z,10.90
2019-03-10T20:05:24.334Z,10.90
2019-03-10T20:07:54.602Z,10.90
2019-03-10T20:10:24.970Z,10.80
2019-03-10T20:12:55.298Z,10.90
2019-03-10T20:15:25.887Z,10.80
2019-03-10T20:17:56.458Z,10.90
2019-03-10T20:20:26.816Z,8.40
2019-03-10T20:22:57.126Z,10.90
2019-03-10T20:27:57.079Z,11.00
2019-03-10T20:30:27.487Z,10.90
2019-03-10T20:32:57.772Z,11.00
2019-03-10T20:35:28.195Z,11.00
2019-03-10T20:37:58.659Z,11.00
2019-03-10T20:42:58.978Z,10.90
2019-03-10T20:45:29.540Z,10.90
2019-03-10T20:48:00.119Z,10.90
2019-03-10T20:50:30.301Z,10.90
2019-03-10T20:53:00.800Z,10.90
2019-03-10T20:58:00.748Z,10.90
2019-03-10T21:00:31.049Z,10.80
2019-03-10T21:03:01.457Z,10.80
2019-03-10T21:05:31.821Z,10.70
2019-03-10T21:08:01.956Z,10.60
2019-03-10T21:10:32.387Z,10.60
2019-03-10T21:13:03.017Z,10.40
2019-03-10T21:15:33.187Z,10.40
2019-03-10T21:18:03.447Z,10.30
2019-03-10T21:20:34.201Z,9.90
2019-03-10T21:23:04.518Z,10.30
2019-03-10T21:25:34.857Z,10.20
2019-03-10T21:30:34.750Z,10.00
2019-03-10T21:35:34.611Z,10.20
2019-03-10T21:40:34.792Z,10.10
2019-03-10T21:43:05.480Z,10.20
2019-03-10T21:45:35.756Z,10.10
2019-03-10T21:48:06.305Z,10.10
2019-03-10T21:50:36.533Z,10.00
2019-03-10T21:53:10.052Z,9.90
2019-03-10T21:55:40.643Z,10.10
2019-03-10T21:58:13.697Z,10.00
2019-03-10T22:00:44.389Z,9.80
2019-03-10T22:03:14.870Z,9.90
2019-03-10T22:05:45.435Z,9.90
2019-03-10T22:08:15.753Z,9.80
2019-03-10T22:10:46.446Z,9.80
2019-03-10T22:13:16.719Z,9.80
2019-03-10T22:15:47.358Z,7.90
2019-03-10T22:18:17.780Z,8.70
2019-03-10T22:20:48.309Z,9.80
2019-03-10T22:23:18.690Z,9.70
2019-03-10T22:28:18.416Z,9.60
2019-03-10T22:30:48.741Z,9.60
2019-03-10T22:33:19.388Z,9.50
2019-03-10T22:35:49.668Z,9.50
2019-03-10T22:38:20.218Z,9.50
2019-03-10T22:40:50.446Z,9.30
2019-03-10T22:43:21.092Z,9.50
2019-03-10T22:45:51.430Z,9.50
2019-03-10T22:48:22.061Z,9.50
2019-03-10T22:50:52.253Z,9.50
2019-03-10T22:53:22.829Z,9.50
2019-03-10T22:55:53.106Z,9.50
2019-03-10T22:58:23.377Z,9.50
2019-03-10T23:00:55.670Z,9.50
2019-03-10T23:03:26.050Z,9.60
2019-03-10T23:05:56.771Z,9.60
2019-03-10T23:08:26.896Z,9.30
2019-03-10T23:10:57.235Z,9.40
2019-03-10T23:13:27.452Z,9.50
2019-03-10T23:15:57.580Z,9.30
2019-03-10T23:18:28.095Z,9.30
2019-03-10T23:20:58.426Z,9.30
2019-03-10T23:23:28.779Z,10.10
2019-03-10T23:25:58.984Z,9.20
2019-03-10T23:28:29.446Z,9.20
2019-03-10T23:31:00.055Z,9.00
2019-03-10T23:33:30.483Z,9.10
2019-03-10T23:36:00.770Z,8.90
2019-03-10T23:38:30.987Z,9.00
2019-03-10T23:41:01.292Z,9.00
2019-03-10T23:43:31.830Z,8.90
2019-03-10T23:46:03.058Z,8.90
2019-03-10T23:48:33.712Z,8.90
2019-03-10T23:51:05.338Z,8.90
2019-03-10T23:53:37.801Z,8.90
2019-03-10T23:56:07.923Z,8.80
2019-03-10T23:58:38.882Z,8.80
